• Join FlightAware (Why Join?)
  • Login
  • US Flag 
12:48PM EDT


 

Airport Tracker/Info


-or-


 

Live Flight TrackerFlight Track Log ✈ N325MR ✈ 30-Apr-2012 ✈ KROW - KLBB

Flight Track Log - Related Links

Times and Time Zones

All times are in EDT time to prevent confusion due to time zone crossing. See the N325MR flight status page for this flight to view local times or setup timezone preferences in your user account.

Time Position Orientation Groundspeed Altitude Reporting Facility
EDT Latitude Longitude Course Direction KTS MPH feet Rate Location/Type
04:39PM 33.3030 -104.4897 74° East  Level FlightAware Approximate
04:40PM 33.3128 -104.4299 74° East  Level FlightAware Approximate
04:41PM 33.3353 -104.3754 75° East  Level FlightAware Approximate
04:42PM 33.3447 -104.3156 75° East  Level FlightAware Approximate
04:43PM 33.3542 -104.2557 74° East  Level FlightAware Approximate
04:44PM 33.3726 -104.1989 75° East  Level FlightAware Approximate
04:45PM 33.3817 -104.1389 74° East  Level FlightAware Approximate
04:46PM 33.4045 -104.0895 79° East  Level FlightAware Approximate
04:47PM 33.4129 -104.0314 78° East  Level FlightAware Approximate
04:48PM 33.4228 -103.9737 80° East  Level FlightAware Approximate
04:48PM 33.4236 -103.9683 84° East 153 176 12,800  Level Fort Worth Center
04:49PM 33.4283 -103.9164 81° East 165 190 13,400 600 Climbing Fort Worth Center
04:50PM 33.4356 -103.8597 84° East 165 190 14,000 660 Climbing Fort Worth Center
04:51PM 33.4403 -103.8053 84° East 165 190 14,800 720 Climbing Fort Worth Center
04:52PM 33.4456 -103.7461 87° East 165 190 15,500 600 Climbing Fort Worth Center
04:53PM 33.4486 -103.6839 77° East 176 203 16,100 600 Climbing Fort Worth Center
04:54PM 33.4600 -103.6225 69° East 181 208 16,700 420 Climbing Fort Worth Center
04:55PM 33.4772 -103.5692 71° East 186 214 17,000 60 Climbing Fort Worth Center
04:56PM 33.4972 -103.5008 79° East 196 226 16,900 -60 Descending Fort Worth Center
04:57PM 33.5089 -103.4319 81° East 211 243 16,900  Level Fort Worth Center
04:58PM 33.5189 -103.3578 83° East 221 254 16,900  Level Fort Worth Center
04:59PM 33.5261 -103.2886 79° East 215 247 16,900  Level Fort Worth Center
05:00PM 33.5378 -103.2194 87° East 215 247 16,900  Level Fort Worth Center
05:01PM 33.5406 -103.1575 78° East 201 231 16,900  Level Fort Worth Center
05:02PM 33.5547 -103.0761 78° East 212 244 16,900  Level Fort Worth Center
05:03PM 33.5661 -103.0119 83° East 212 244 16,900  Level Fort Worth Center
05:04PM 33.5731 -102.9453 85° East 212 244 16,900 -240 Level Fort Worth Center
05:05PM 33.5781 -102.8808 85° East 207 238 16,500 -540 Descending Fort Worth Center
05:06PM 33.5836 -102.8039 78° East 207 238 15,900 -660 Descending Fort Worth Center
05:07PM 33.5947 -102.7397 85° East 208 239 15,200 -660 Descending Fort Worth Center
05:08PM 33.5992 -102.6825 85° East 203 234 14,700 -600 Descending Fort Worth Center
05:09PM 33.6042 -102.6106 81° East 202 232 14,100 -600 Descending Fort Worth Center
05:10PM 33.6131 -102.5464 78° East 202 232 13,500 -480 Descending Fort Worth Center
05:11PM 33.6242 -102.4819 76° East 195 224 13,200 -540 Descending Fort Worth Center
05:12PM 33.6369 -102.4181 75° East 197 227 12,500 -600 Descending Fort Worth Center
05:13PM 33.6500 -102.3589 74° East 187 215 12,000 -780 Descending Fort Worth Center
05:14PM 33.6625 -102.3047 76° East 175 201 11,000 -1,020 Descending Fort Worth Center
05:15PM 33.6753 -102.2431 80° East 177 204 10,000 -900 Descending Fort Worth Center
05:16PM 33.6836 -102.1861 79° East 173 199 9,300 -840 Descending Fort Worth Center
05:17PM 33.6919 -102.1364 60° Northeast 167 192 8,500 -660 Descending Fort Worth Center
05:18PM 33.7144 -102.0903 57° Northeast 171 197 8,100 -540 Descending Fort Worth Center
05:19PM 33.7436 -102.0369 67° East 177 204 7,500 -600 Descending Fort Worth Center
05:20PM 33.7622 -101.9831 82° East 179 206 6,900 -780 Descending Fort Worth Center
05:21PM 33.7683 -101.9283 101° East 155 178 6,000 -900 Descending Fort Worth Center
05:22PM 33.7617 -101.8856 120° Southeast 132 152 5,200 -780 Descending Fort Worth Center
05:23PM 33.7481 -101.8572 142° Southeast 121 139 4,600 -540 Descending Fort Worth Center
05:24PM 33.7258 -101.8361 174° South 107 123 4,200 -480 Descending Fort Worth Center
05:25PM 33.6947 -101.8322 174° South 104 120 3,700 -540 Descending Fort Worth Center